createdAt,value
2019-06-04T00:01:26.370Z,99250.23
2019-06-04T00:03:59.330Z,99248.78
2019-06-04T00:06:32.009Z,99245.87
2019-06-04T00:09:05.573Z,99244.23
2019-06-04T00:11:38.017Z,99240.66
2019-06-04T00:14:10.350Z,99237.89
2019-06-04T00:16:42.729Z,99238.53
2019-06-04T00:19:15.069Z,99238.82
2019-06-04T00:21:47.443Z,99236.06
2019-06-04T00:24:19.822Z,99235.38
2019-06-04T00:26:52.359Z,99231.33
2019-06-04T00:29:24.723Z,99230.49
2019-06-04T00:31:57.891Z,99230.50
2019-06-04T00:34:30.353Z,99232.74
2019-06-04T00:37:02.769Z,99231.58
2019-06-04T00:39:35.105Z,99223.97
2019-06-04T00:42:08.986Z,99226.89
2019-06-04T00:44:41.522Z,99224.27
2019-06-04T00:47:13.905Z,99219.09
2019-06-04T00:49:46.311Z,99221.16
2019-06-04T00:52:18.681Z,99223.41
2019-06-04T00:54:51.015Z,99218.55
2019-06-04T00:57:23.406Z,99216.27
2019-06-04T00:59:56.425Z,99218.52
2019-06-04T01:02:28.733Z,99222.21
2019-06-04T01:05:02.331Z,99222.19
2019-06-04T01:07:34.920Z,99224.13
2019-06-04T01:10:07.698Z,99224.75
2019-06-04T01:12:41.226Z,99224.88
2019-06-04T01:15:25.340Z,99227.48
2019-06-04T01:17:47.762Z,99228.27
2019-06-04T01:20:55.437Z,99230.87
2019-06-04T01:23:27.825Z,99225.19
2019-06-04T01:26:01.442Z,99225.19
2019-06-04T01:28:33.997Z,99224.37
2019-06-04T01:31:06.562Z,99221.59
2019-06-04T01:33:41.011Z,99223.86
2019-06-04T01:36:13.097Z,99224.65
2019-06-04T01:38:45.544Z,99219.12
2019-06-04T01:41:17.954Z,99224.31
2019-06-04T01:43:51.404Z,99223.02
2019-06-04T01:46:23.733Z,99220.22
2019-06-04T01:48:56.104Z,99219.23
2019-06-04T01:51:28.507Z,99215.84
2019-06-04T01:54:02.198Z,99214.53
2019-06-04T01:56:35.832Z,99217.42
2019-06-04T01:59:09.048Z,99209.19
2019-06-04T02:01:41.420Z,99208.97
2019-06-04T02:04:13.816Z,99199.77
2019-06-04T02:06:46.222Z,99198.49
2019-06-04T02:09:18.625Z,99195.77
2019-06-04T02:11:51.010Z,99191.38
2019-06-04T02:14:23.445Z,99186.85
2019-06-04T02:16:55.845Z,99184.14
2019-06-04T02:19:28.369Z,99182.17
2019-06-04T02:22:00.737Z,99182.18
2019-06-04T02:24:33.144Z,99182.38
2019-06-04T02:27:06.217Z,99176.06
2019-06-04T02:29:38.746Z,99175.40
2019-06-04T02:32:11.123Z,99169.41
2019-06-04T02:34:43.538Z,99168.09
2019-06-04T02:37:15.939Z,99163.55
2019-06-04T02:39:48.372Z,99164.97
2019-06-04T02:42:20.691Z,99160.25
2019-06-04T02:44:53.097Z,99161.86
2019-06-04T02:47:25.481Z,99150.84
2019-06-04T02:49:58.090Z,99150.48
2019-06-04T02:52:30.793Z,99152.91
2019-06-04T02:55:04.007Z,99152.90
2019-06-04T02:57:37.581Z,99149.31
2019-06-04T03:00:10.284Z,99149.30
2019-06-04T03:02:42.750Z,99143.30
2019-06-04T03:05:15.136Z,99157.33
2019-06-04T03:07:47.518Z,99160.86
2019-06-04T03:10:19.922Z,99163.42
2019-06-04T03:12:52.301Z,99159.67
2019-06-04T03:15:24.702Z,99159.63
2019-06-04T03:17:57.009Z,99160.78
2019-06-04T03:20:29.445Z,99159.16
2019-06-04T03:23:01.819Z,99157.48
2019-06-04T03:25:34.246Z,99159.91
2019-06-04T03:28:06.552Z,99156.98
2019-06-04T03:30:39.076Z,99158.44
2019-06-04T03:33:12.766Z,99157.33
2019-06-04T03:35:45.486Z,99154.41
2019-06-04T03:38:19.010Z,99155.83
2019-06-04T03:40:51.583Z,99151.14
2019-06-04T03:43:24.176Z,99152.27
2019-06-04T03:45:57.652Z,99153.88
2019-06-04T03:48:30.027Z,99149.36
2019-06-04T03:51:02.446Z,99149.85
2019-06-04T03:53:34.827Z,99147.70
2019-06-04T03:56:07.223Z,99152.22
2019-06-04T03:58:39.602Z,99147.67
2019-06-04T04:01:12.004Z,99150.23
2019-06-04T04:03:44.595Z,99148.97
2019-06-04T04:06:17.008Z,99148.33
2019-06-04T04:08:49.761Z,99151.88
2019-06-04T04:11:22.814Z,99149.45
2019-06-04T04:13:56.293Z,99143.97
2019-06-04T04:16:29.135Z,99143.33
2019-06-04T04:19:01.656Z,99140.59
2019-06-04T04:21:34.056Z,99136.23
2019-06-04T04:24:06.475Z,99142.41
2019-06-04T04:26:38.875Z,99138.56
2019-06-04T04:29:11.263Z,99136.94
2019-06-04T04:31:43.666Z,99142.63
2019-06-04T04:34:31.704Z,99138.28
2019-06-04T04:36:50.298Z,99131.25
2019-06-04T04:39:23.686Z,99128.83
2019-06-04T04:41:56.168Z,99131.11
2019-06-04T04:44:28.623Z,99130.48
2019-06-04T04:47:01.043Z,99131.95
2019-06-04T04:49:34.578Z,99133.41
2019-06-04T04:52:07.257Z,99134.58
2019-06-04T04:54:39.648Z,99137.20
2019-06-04T04:57:12.044Z,99134.15
2019-06-04T04:59:44.535Z,99124.28
2019-06-04T05:02:16.936Z,99124.48
2019-06-04T05:04:49.871Z,99125.95
2019-06-04T05:07:24.055Z,99119.69
2019-06-04T05:09:56.616Z,99120.02
2019-06-04T05:12:29.073Z,99119.21
2019-06-04T05:15:01.859Z,99116.00
2019-06-04T05:17:35.275Z,99116.52
2019-06-04T05:20:08.051Z,99110.20
2019-06-04T05:22:40.384Z,99109.12
2019-06-04T05:25:12.825Z,99112.22
2019-06-04T05:27:45.297Z,99114.02
2019-06-04T05:30:26.889Z,99111.95
2019-06-04T05:32:51.971Z,99115.52
2019-06-04T05:35:42.755Z,99114.41
2019-06-04T05:38:16.513Z,99115.56
2019-06-04T05:40:48.977Z,99109.30
2019-06-04T05:43:22.443Z,99100.94
2019-06-04T05:45:54.860Z,99101.11
2019-06-04T05:48:28.299Z,99096.45
2019-06-04T05:51:00.852Z,99097.11
2019-06-04T05:53:33.336Z,99095.69
2019-06-04T05:56:05.649Z,99092.02
2019-06-04T05:58:38.046Z,99083.81
2019-06-04T06:01:10.360Z,99086.59
2019-06-04T06:03:42.763Z,99085.64
2019-06-04T06:06:15.172Z,99083.74
2019-06-04T06:08:47.763Z,99085.70
2019-06-04T06:11:20.235Z,99084.44
2019-06-04T06:13:52.647Z,99086.23
2019-06-04T06:16:25.918Z,99080.89
2019-06-04T06:18:58.432Z,99079.64
2019-06-04T06:21:31.112Z,99084.34
2019-06-04T06:24:03.523Z,99077.89
2019-06-04T06:26:35.837Z,99076.47
2019-06-04T06:29:08.339Z,99076.33
2019-06-04T06:31:40.716Z,99075.37
2019-06-04T06:34:13.050Z,99074.43
2019-06-04T06:36:45.492Z,99072.20
2019-06-04T06:39:17.866Z,99072.24
2019-06-04T06:41:50.356Z,99066.10
2019-06-04T06:44:22.763Z,99056.89
2019-06-04T06:47:13.117Z,99054.16
2019-06-04T06:50:04.602Z,99054.97
2019-06-04T06:52:54.998Z,99059.67
2019-06-04T06:55:45.859Z,99056.91
2019-06-04T06:58:38.720Z,99057.23
2019-06-04T07:01:30.475Z,99057.42
2019-06-04T07:04:21.509Z,99055.31
2019-06-04T07:07:13.258Z,99050.28
2019-06-04T07:10:05.346Z,99047.69
2019-06-04T07:12:56.572Z,99054.88
2019-06-04T07:15:48.207Z,99052.91
2019-06-04T07:18:40.524Z,99053.73
2019-06-04T07:21:31.734Z,99053.39
2019-06-04T07:24:23.181Z,99054.04
2019-06-04T07:27:14.385Z,99053.22
2019-06-04T07:30:06.478Z,99046.09
2019-06-04T07:32:56.894Z,99048.01
2019-06-04T07:35:47.190Z,99042.98
2019-06-04T07:38:37.527Z,99045.55
2019-06-04T07:41:28.978Z,99041.17
2019-06-04T07:44:19.404Z,99039.53
2019-06-04T07:47:09.519Z,99037.73
2019-06-04T07:50:00.758Z,99035.30
2019-06-04T07:52:51.175Z,99027.49
2019-06-04T07:55:43.105Z,99004.78
2019-06-04T07:58:34.276Z,99005.25
2019-06-04T08:01:24.922Z,99020.95
2019-06-04T08:04:16.299Z,99018.31
2019-06-04T08:07:09.668Z,99009.84
2019-06-04T08:10:00.237Z,99013.06
2019-06-04T08:12:50.934Z,99007.17
2019-06-04T08:15:41.966Z,99005.50
2019-06-04T08:18:33.611Z,99000.77
2019-06-04T08:21:41.999Z,98998.34
2019-06-04T08:24:16.170Z,98999.92
2019-06-04T08:27:06.660Z,98993.84
2019-06-04T08:29:58.019Z,98996.56
2019-06-04T08:32:48.651Z,98994.24
2019-06-04T08:35:39.208Z,98990.44
2019-06-04T08:38:29.787Z,98992.19
2019-06-04T08:41:20.246Z,98985.45
2019-06-04T08:44:11.221Z,98988.27
2019-06-04T08:47:02.246Z,98978.11
2019-06-04T08:49:53.321Z,98972.73
2019-06-04T08:52:46.142Z,98971.83
2019-06-04T08:55:41.212Z,98966.13
2019-06-04T08:58:31.278Z,98957.41
2019-06-04T09:01:21.875Z,98956.97
2019-06-04T09:04:12.859Z,98947.89
2019-06-04T09:07:04.133Z,98949.05
2019-06-04T09:09:54.624Z,98942.47
2019-06-04T09:12:46.180Z,98948.41
2019-06-04T09:15:39.966Z,98944.63
2019-06-04T09:18:29.496Z,98953.96
2019-06-04T09:21:20.877Z,98945.33
2019-06-04T09:24:12.798Z,98943.30
2019-06-04T09:27:07.627Z,98935.63
2019-06-04T09:29:55.985Z,98939.73
2019-06-04T09:32:47.478Z,98924.73
2019-06-04T09:35:39.469Z,98932.19
2019-06-04T09:38:30.977Z,98920.92
2019-06-04T09:41:22.419Z,98918.33
2019-06-04T09:44:13.367Z,98917.23
2019-06-04T09:47:03.980Z,98913.78
2019-06-04T09:49:54.799Z,98910.02
2019-06-04T09:52:49.172Z,98904.54
2019-06-04T09:55:37.086Z,98899.42
2019-06-04T09:58:30.206Z,98891.16
2019-06-04T10:01:20.141Z,98892.19
2019-06-04T10:04:11.063Z,98889.19
2019-06-04T10:07:02.314Z,98895.38
2019-06-04T10:09:53.668Z,98887.16
2019-06-04T10:12:48.615Z,98891.55
2019-06-04T10:15:40.034Z,98884.29
2019-06-04T10:18:30.911Z,98875.77
2019-06-04T10:21:22.472Z,98878.30
2019-06-04T10:24:13.737Z,98872.20
2019-06-04T10:27:04.235Z,98869.06
2019-06-04T10:29:55.128Z,98869.70
2019-06-04T10:32:46.604Z,98865.77
2019-06-04T10:35:37.163Z,98868.31
2019-06-04T10:38:29.494Z,98863.50
2019-06-04T10:41:19.890Z,98863.52
2019-06-04T10:44:12.158Z,98858.17
2019-06-04T10:47:02.626Z,98854.14
2019-06-04T10:49:54.664Z,98844.89
2019-06-04T10:52:45.691Z,98845.25
2019-06-04T10:55:35.873Z,98843.67
2019-06-04T10:58:26.453Z,98843.72
2019-06-04T11:01:18.303Z,98836.15
2019-06-04T11:04:08.837Z,98826.49
2019-06-04T11:07:03.567Z,98828.91
2019-06-04T11:09:52.249Z,98823.19
2019-06-04T11:12:44.438Z,98816.94
2019-06-04T11:15:35.741Z,98812.91
2019-06-04T11:18:27.499Z,98806.07
2019-06-04T11:21:18.208Z,98806.13
2019-06-04T11:24:09.416Z,98798.66
2019-06-04T11:27:00.591Z,98790.79
2019-06-04T11:29:51.602Z,98794.26
2019-06-04T11:32:41.992Z,98789.02
2019-06-04T11:35:32.837Z,98785.21
2019-06-04T11:38:23.302Z,98782.64
2019-06-04T11:41:14.531Z,98767.64
2019-06-04T11:44:05.333Z,98765.34
2019-06-04T11:46:55.534Z,98764.91
2019-06-04T11:49:46.063Z,98762.80
2019-06-04T11:52:37.457Z,98760.09
2019-06-04T11:55:28.292Z,98753.08
2019-06-04T11:58:19.175Z,98755.24
2019-06-04T12:01:17.500Z,98748.27
2019-06-04T12:04:02.935Z,98741.48
2019-06-04T12:06:54.641Z,98735.93
2019-06-04T12:09:47.213Z,98730.89
2019-06-04T12:12:44.320Z,98722.03
2019-06-04T12:15:30.409Z,98723.80
2019-06-04T12:18:21.771Z,98718.20
2019-06-04T12:21:16.514Z,98715.64
2019-06-04T12:24:04.054Z,98706.97
2019-06-04T12:26:56.596Z,98707.88
2019-06-04T12:29:46.872Z,98703.22
2019-06-04T12:32:36.998Z,98704.77
2019-06-04T12:35:27.154Z,98700.35
2019-06-04T12:38:17.638Z,98698.84
2019-06-04T12:41:08.368Z,98698.36
2019-06-04T12:44:06.783Z,98690.61
2019-06-04T12:46:52.265Z,98684.55
2019-06-04T12:49:49.980Z,98682.11
2019-06-04T12:52:35.538Z,98683.56
2019-06-04T12:55:26.457Z,98671.50
2019-06-04T12:58:17.289Z,98670.00
2019-06-04T13:01:08.522Z,98665.38
2019-06-04T13:04:00.293Z,98662.92
2019-06-04T13:06:51.918Z,98657.98
2019-06-04T13:09:42.635Z,98646.73
2019-06-04T13:12:33.161Z,98655.67
2019-06-04T13:15:25.205Z,98644.45
2019-06-04T13:18:22.799Z,98646.37
2019-06-04T13:21:09.303Z,98644.70
2019-06-04T13:24:00.964Z,98649.36
2019-06-04T13:26:52.153Z,98636.74
2019-06-04T13:29:45.459Z,98646.95
2019-06-04T13:32:35.187Z,98646.94
2019-06-04T13:35:26.120Z,98646.52
2019-06-04T13:38:16.523Z,98646.39
2019-06-04T13:41:06.979Z,98643.58
2019-06-04T13:43:57.257Z,98638.78
2019-06-04T13:46:48.468Z,98634.20
2019-06-04T13:49:39.202Z,98636.45
2019-06-04T13:52:30.163Z,98630.36
2019-06-04T13:55:21.388Z,98625.59
2019-06-04T13:58:17.656Z,98622.24
2019-06-04T14:01:05.836Z,98608.45
2019-06-04T14:03:57.017Z,98599.58
2019-06-04T14:06:47.638Z,98600.66
2019-06-04T14:09:37.875Z,98595.32
2019-06-04T14:12:28.314Z,98589.55
2019-06-04T14:15:19.414Z,98592.28
2019-06-04T14:18:11.003Z,98583.09
2019-06-04T14:21:01.937Z,98583.57
2019-06-04T14:23:53.268Z,98580.81
2019-06-04T14:26:43.821Z,98584.02
2019-06-04T14:29:34.982Z,98574.22
2019-06-04T14:32:25.378Z,98572.73
2019-06-04T14:35:16.619Z,98570.97
2019-06-04T14:38:08.420Z,98563.36
2019-06-04T14:41:09.050Z,98560.08
2019-06-04T14:43:52.121Z,98558.03
2019-06-04T14:46:43.316Z,98553.67
2019-06-04T14:49:34.374Z,98549.09
2019-06-04T14:52:24.526Z,98545.00
2019-06-04T14:55:16.753Z,98538.56
2019-06-04T14:58:07.946Z,98534.77
2019-06-04T15:00:58.373Z,98529.45
2019-06-04T15:03:49.388Z,98523.52
2019-06-04T15:06:39.577Z,98516.52
2019-06-04T15:09:32.215Z,98507.94
2019-06-04T15:12:23.150Z,98509.17
2019-06-04T15:15:17.371Z,98505.88
2019-06-04T15:18:06.396Z,98504.50
2019-06-04T15:20:57.321Z,98490.75
2019-06-04T15:23:48.801Z,98488.77
2019-06-04T15:26:39.668Z,98490.67
2019-06-04T15:29:30.469Z,98484.92
2019-06-04T15:32:22.171Z,98482.39
2019-06-04T15:35:14.000Z,98473.55
2019-06-04T15:38:04.325Z,98477.59
2019-06-04T15:40:55.406Z,98467.88
2019-06-04T15:43:46.267Z,98470.56
2019-06-04T15:46:36.721Z,98463.08
2019-06-04T15:49:26.931Z,98466.11
2019-06-04T15:52:18.310Z,98467.48
2019-06-04T15:55:09.699Z,98457.77
2019-06-04T15:58:01.056Z,98472.27
2019-06-04T16:00:51.693Z,98458.67
2019-06-04T16:03:49.487Z,98454.43
2019-06-04T16:06:34.510Z,98457.64
2019-06-04T16:09:25.050Z,98449.96
2019-06-04T16:12:17.138Z,98450.21
2019-06-04T16:15:09.467Z,98458.93
2019-06-04T16:17:59.841Z,98446.52
2019-06-04T16:20:51.173Z,98450.11
2019-06-04T16:23:41.961Z,98445.05
2019-06-04T16:26:33.557Z,98439.66
2019-06-04T16:29:24.905Z,98437.72
2019-06-04T16:32:17.356Z,98440.09
2019-06-04T16:35:08.974Z,98438.37
2019-06-04T16:38:00.241Z,98435.02
2019-06-04T16:40:51.358Z,98435.09
2019-06-04T16:43:42.055Z,98433.69
2019-06-04T16:46:33.092Z,98429.77
2019-06-04T16:49:25.458Z,98426.25
2019-06-04T16:52:15.842Z,98424.67
2019-06-04T16:55:06.803Z,98420.77
2019-06-04T16:57:58.019Z,98423.47
2019-06-04T17:00:49.476Z,98426.29
2019-06-04T17:03:40.800Z,98420.93
2019-06-04T17:06:32.064Z,98422.64
2019-06-04T17:09:22.293Z,98415.65
2019-06-04T17:12:12.938Z,98414.02
2019-06-04T17:15:03.503Z,98417.28
2019-06-04T17:17:54.140Z,98412.44
2019-06-04T17:20:45.339Z,98405.88
2019-06-04T17:23:35.803Z,98401.22
2019-06-04T17:26:27.990Z,98397.95
2019-06-04T17:29:19.448Z,98391.67
2019-06-04T17:32:10.525Z,98393.14
2019-06-04T17:35:02.261Z,98389.92
2019-06-04T17:37:54.409Z,98390.63
2019-06-04T17:40:45.254Z,98383.38
2019-06-04T17:43:36.005Z,98384.27
2019-06-04T17:46:27.922Z,98376.90
2019-06-04T17:49:19.225Z,98377.30
2019-06-04T17:52:10.157Z,98371.97
2019-06-04T17:55:01.472Z,98378.97
2019-06-04T17:57:52.486Z,98373.22
2019-06-04T18:00:43.490Z,98372.04
2019-06-04T18:03:35.439Z,98374.89
2019-06-04T18:06:27.768Z,98374.06
2019-06-04T18:09:18.413Z,98375.44
2019-06-04T18:12:09.653Z,98377.94
2019-06-04T18:15:00.613Z,98371.95
2019-06-04T18:17:50.821Z,98372.76
2019-06-04T18:20:42.001Z,98362.45
2019-06-04T18:23:32.202Z,98364.56
2019-06-04T18:26:23.173Z,98363.20
2019-06-04T18:29:14.519Z,98362.10
2019-06-04T18:32:07.119Z,98358.50
2019-06-04T18:34:58.398Z,98358.98
2019-06-04T18:37:49.023Z,98357.76
2019-06-04T18:40:39.643Z,98357.66
2019-06-04T18:43:43.454Z,98355.80
2019-06-04T18:46:22.935Z,98355.85
2019-06-04T18:49:14.107Z,98356.09
2019-06-04T18:52:06.123Z,98355.34
2019-06-04T18:54:56.614Z,98359.14
2019-06-04T18:57:48.873Z,98357.63
2019-06-04T19:00:40.523Z,98357.23
2019-06-04T19:03:32.556Z,98359.33
2019-06-04T19:06:24.591Z,98356.37
2019-06-04T19:09:15.951Z,98357.34
2019-06-04T19:12:06.051Z,98362.06
2019-06-04T19:14:56.900Z,98365.36
2019-06-04T19:17:48.252Z,98370.83
2019-06-04T19:20:39.302Z,98367.66
2019-06-04T19:23:30.583Z,98375.66
2019-06-04T19:26:21.796Z,98369.02
2019-06-04T19:29:12.991Z,98371.63
2019-06-04T19:32:04.487Z,98372.92
2019-06-04T19:34:55.822Z,98376.04
2019-06-04T19:37:46.884Z,98381.70
2019-06-04T19:40:38.519Z,98384.41
2019-06-04T19:43:30.662Z,98382.39
2019-06-04T19:46:22.139Z,98387.00
2019-06-04T19:49:13.334Z,98391.79
2019-06-04T19:52:04.066Z,98393.53
2019-06-04T19:54:55.067Z,98394.38
2019-06-04T19:57:46.123Z,98392.91
2019-06-04T20:00:37.408Z,98389.19
2019-06-04T20:03:28.600Z,98388.52
2019-06-04T20:06:19.058Z,98389.85
2019-06-04T20:09:10.273Z,98388.87
2019-06-04T20:12:01.315Z,98385.13
2019-06-04T20:14:51.439Z,98380.39
2019-06-04T20:17:44.103Z,98378.88
2019-06-04T20:20:34.369Z,98382.73
2019-06-04T20:23:24.552Z,98383.09
2019-06-04T20:26:14.929Z,98382.59
2019-06-04T20:29:05.867Z,98378.66
2019-06-04T20:31:56.683Z,98379.16
2019-06-04T20:34:47.267Z,98387.56
2019-06-04T20:37:39.286Z,98391.45
2019-06-04T20:40:31.610Z,98391.11
2019-06-04T20:43:22.172Z,98390.45
2019-06-04T20:46:12.643Z,98392.08
2019-06-04T20:49:24.222Z,98392.41
2019-06-04T20:51:55.112Z,98398.55
2019-06-04T20:54:47.105Z,98395.31
2019-06-04T20:57:38.883Z,98400.23
2019-06-04T21:00:30.416Z,98404.81
2019-06-04T21:03:22.820Z,98404.71
2019-06-04T21:06:14.265Z,98405.23
2019-06-04T21:09:07.243Z,98413.56
2019-06-04T21:11:58.502Z,98410.53
2019-06-04T21:14:49.626Z,98409.30
2019-06-04T21:17:43.704Z,98410.48
2019-06-04T21:20:35.281Z,98411.98
2019-06-04T21:23:26.640Z,98412.84
2019-06-04T21:26:18.042Z,98411.58
2019-06-04T21:29:08.857Z,98408.22
2019-06-04T21:31:59.471Z,98408.42
2019-06-04T21:34:51.043Z,98416.09
2019-06-04T21:37:42.248Z,98416.74
2019-06-04T21:40:32.551Z,98415.20
2019-06-04T21:43:23.230Z,98416.84
2019-06-04T21:46:14.473Z,98426.38
2019-06-04T21:49:04.789Z,98422.50
2019-06-04T21:51:56.613Z,98428.07
2019-06-04T21:54:49.439Z,98433.47
2019-06-04T21:57:40.304Z,98434.16
2019-06-04T22:00:30.724Z,98444.78
2019-06-04T22:03:21.885Z,98471.91
2019-06-04T22:06:12.555Z,98502.72
2019-06-04T22:09:05.327Z,98512.50
2019-06-04T22:11:56.846Z,98510.31
2019-06-04T22:14:48.216Z,98506.86
2019-06-04T22:17:38.452Z,98499.90
2019-06-04T22:20:29.148Z,98494.18
2019-06-04T22:23:19.540Z,98507.17
2019-06-04T22:26:10.966Z,98491.09
2019-06-04T22:29:01.826Z,98527.56
2019-06-04T22:31:54.947Z,98524.38
2019-06-04T22:34:46.739Z,98524.76
2019-06-04T22:37:37.503Z,98513.05
2019-06-04T22:40:28.337Z,98513.28
2019-06-04T22:43:20.283Z,98508.13
2019-06-04T22:46:18.985Z,98506.54
2019-06-04T22:49:03.789Z,98503.00
2019-06-04T22:51:55.887Z,98505.96
2019-06-04T22:54:45.936Z,98499.79
2019-06-04T22:57:37.744Z,98496.63
2019-06-04T23:00:28.035Z,98496.81
2019-06-04T23:03:18.974Z,98502.02
2019-06-04T23:06:09.112Z,98495.97
2019-06-04T23:09:02.530Z,98493.08
2019-06-04T23:11:56.182Z,98496.22
2019-06-04T23:14:46.899Z,98497.32
2019-06-04T23:17:37.063Z,98504.00
2019-06-04T23:20:27.996Z,98513.95
2019-06-04T23:23:19.244Z,98529.41
2019-06-04T23:26:09.939Z,98530.17
2019-06-04T23:29:00.797Z,98517.90
2019-06-04T23:31:52.095Z,98528.34
2019-06-04T23:34:43.083Z,98523.53
2019-06-04T23:37:33.477Z,98513.20
2019-06-04T23:40:23.857Z,98506.61
2019-06-04T23:43:15.293Z,98501.32
2019-06-04T23:46:06.771Z,98502.35
2019-06-04T23:48:58.594Z,98498.86
2019-06-04T23:51:51.072Z,98503.34
2019-06-04T23:54:41.870Z,98509.45
2019-06-04T23:57:32.617Z,98504.23
